Bayamo — PCMA — position and weather

sailwx.info

Track history (hours):
 
Tides and Currents Weather Stations Pressure Air Temp Water Temp Dewpoint Dewpoint Depression Visibility Wind Speed Wind Dir Waves Ship Positions

Bayamo

Last reported at 2017-Sep-20 15:05 UTC. Time now 2017-Sep-20 23:51 UTC.
Position N 51°27' E 002°15'.

Length 88 m; draft 4.2 m.

Type: Ship (hazmat cat D). MMSI: 245669000.

Date/timePositionNaut miles runAvg speedWind from/ knotsBaromVisibWave heightAir tempDewpointWater temp
2017-Sep-20 15:05N 51°27' E 002°15'212.1
2017-Sep-20 14:53N 51°25' E 002°13'7 7.4
2017-Sep-20 14:00N 51°22' E 002°22'5 9.6
2017-Sep-20 13:30N 51°23' E 002°29'4 8.3
2017-Sep-20 13:00N 51°20' E 002°35'0 0.8
2017-Sep-20 12:30N 51°20' E 002°35'0 0.0
2017-Sep-20 12:00N 51°20' E 002°35'0 0.0
2017-Sep-20 11:30N 51°20' E 002°35'0 0.0
2017-Sep-20 10:54N 51°20' E 002°35'0 0.6
2017-Sep-20 10:29N 51°20' E 002°35'4 7.5
2017-Sep-20 10:00N 51°21' E 002°29'3 7.0
2017-Sep-20 09:30N 51°20' E 002°24'4 7.2
2017-Sep-20 09:00N 51°18' E 002°20'510.2
2017-Sep-20 08:30N 51°15' E 002°13'5 9.8
2017-Sep-20 08:00N 51°13' E 002°06'5 9.5
2017-Sep-20 07:30N 51°11' E 001°59'5 9.4
2017-Sep-20 07:01N 51°08' E 001°53'5 9.2
2017-Sep-20 06:31N 51°06' E 001°47'5 9.1
2017-Sep-20 06:00N 51°03' E 001°41'5 9.2
2017-Sep-20 05:30N 50°59' E 001°36'100 6.2
2017-Sep-19 13:20N 50°35' W 000°58'412.1
2017-Sep-19 13:01N 50°39' W 000°60'510.3
2017-Sep-19 12:31N 50°43' W 001°04'0 0.0
2017-Sep-19 11:59N 50°43' W 001°04'0 0.0
2017-Sep-19 11:29N 50°43' W 001°04'0 0.0
2017-Sep-19 10:59N 50°43' W 001°04'0 0.0
2017-Sep-19 10:26N 50°43' W 001°04'0 0.0
2017-Sep-19 09:59N 50°43' W 001°04'0 0.0
2017-Sep-19 09:29N 50°43' W 001°04'0 0.0
2017-Sep-19 08:59N 50°43' W 001°04'0 0.0
2017-Sep-19 08:29N 50°43' W 001°04'0 0.2
2017-Sep-19 07:59N 50°43' W 001°04'0 0.0
2017-Sep-19 07:29N 50°43' W 001°04'0 0.0
2017-Sep-19 06:59N 50°43' W 001°04'0 0.0
2017-Sep-19 06:29N 50°43' W 001°04'0 0.0
2017-Sep-19 05:59N 50°43' W 001°04'0 0.0
2017-Sep-19 05:29N 50°43' W 001°04'0 0.0
2017-Sep-19 04:59N 50°43' W 001°04'0 0.0
2017-Sep-19 04:29N 50°43' W 001°04'0 0.0
2017-Sep-19 03:59N 50°43' W 001°04'0 0.0
2017-Sep-19 03:29N 50°43' W 001°04'0 0.0
2017-Sep-19 02:59N 50°43' W 001°04'0 0.0
2017-Sep-19 02:29N 50°43' W 001°04'0 0.0
2017-Sep-19 01:59N 50°43' W 001°04'0 0.0
2017-Sep-19 01:29N 50°43' W 001°04'0 0.0
2017-Sep-19 00:59N 50°43' W 001°04'0 0.1
2017-Sep-19 00:29N 50°43' W 001°04'0 0.1
2017-Sep-18 23:59N 50°43' W 001°04'0 0.0
2017-Sep-18 23:29N 50°43' W 001°04'0 0.0
2017-Sep-18 22:59N 50°43' W 001°04'0 0.0
2017-Sep-18 22:29N 50°43' W 001°04'0 0.0
2017-Sep-18 21:59N 50°43' W 001°04'0 0.0
2017-Sep-18 21:29N 50°43' W 001°04'0 0.0
2017-Sep-18 20:59N 50°43' W 001°04'0 0.1
2017-Sep-18 20:29N 50°43' W 001°04'0 0.1
2017-Sep-18 19:59N 50°43' W 001°04'0 0.0
2017-Sep-18 19:29N 50°43' W 001°04'0 0.0
2017-Sep-18 18:59N 50°43' W 001°04'0 0.1
2017-Sep-18 18:29N 50°43' W 001°04'0 0.0
2017-Sep-18 17:59N 50°43' W 001°04'0 0.0
2017-Sep-18 17:29N 50°43' W 001°04'0 0.0
2017-Sep-18 16:59N 50°43' W 001°04'0 0.0
2017-Sep-18 16:29N 50°43' W 001°04'0 0.0
2017-Sep-18 15:56N 50°43' W 001°04'0 0.0
2017-Sep-18 15:29N 50°43' W 001°04'0 0.0
2017-Sep-18 14:56N 50°43' W 001°04'0 0.0
2017-Sep-18 14:29N 50°43' W 001°04'0 0.0
2017-Sep-18 13:59N 50°43' W 001°04'0 0.0
2017-Sep-18 13:26N 50°43' W 001°04'0 0.1
2017-Sep-18 12:59N 50°43' W 001°04'0 0.0
2017-Sep-18 12:29N 50°43' W 001°04'0 0.2
2017-Sep-18 11:59N 50°43' W 001°04'0 0.0
2017-Sep-18 11:29N 50°43' W 001°04'0 0.0
2017-Sep-18 10:59N 50°43' W 001°04'0 0.0
2017-Sep-18 10:29N 50°43' W 001°04'0 0.0
2017-Sep-18 09:59N 50°43' W 001°04'0 0.0
2017-Sep-18 09:26N 50°43' W 001°04'0 0.0
2017-Sep-18 08:59N 50°43' W 001°04'0 0.0
2017-Sep-18 08:29N 50°43' W 001°04'0 0.1
2017-Sep-18 07:59N 50°43' W 001°04'0 0.0
2017-Sep-18 07:29N 50°43' W 001°04'0 0.0
2017-Sep-18 06:59N 50°43' W 001°04'0 0.0
2017-Sep-18 06:26N 50°43' W 001°04'0 0.0
2017-Sep-18 05:59N 50°43' W 001°04'0 0.0
2017-Sep-18 05:29N 50°43' W 001°04'0 0.0
2017-Sep-18 04:59N 50°43' W 001°04'0 0.0
2017-Sep-18 04:29N 50°43' W 001°04'0 0.0
2017-Sep-18 03:59N 50°43' W 001°04'0 0.0
2017-Sep-18 03:29N 50°43' W 001°04'0 0.0
2017-Sep-18 02:59N 50°43' W 001°04'0 0.0
2017-Sep-18 02:29N 50°43' W 001°04'0 0.0
2017-Sep-18 01:59N 50°43' W 001°04'0 0.0
2017-Sep-18 01:29N 50°43' W 001°04'0 0.0
2017-Sep-18 00:59N 50°43' W 001°04'0 0.0
2017-Sep-18 00:29N 50°43' W 001°04'0 0.0
2017-Sep-17 23:59N 50°43' W 001°04'0 0.1
2017-Sep-17 23:29N 50°43' W 001°04'0 0.1
2017-Sep-17 22:59N 50°43' W 001°04'0 0.0
2017-Sep-17 22:29N 50°43' W 001°04'0 0.0
2017-Sep-17 21:59N 50°43' W 001°04'0 0.0
2017-Sep-17 21:29N 50°43' W 001°04'0 0.0
2017-Sep-17 20:59N 50°43' W 001°04'0 0.0
2017-Sep-17 20:29N 50°43' W 001°04'0 0.0
2017-Sep-17 19:59N 50°43' W 001°04'0 0.0
2017-Sep-17 19:29N 50°43' W 001°04'0 0.0
2017-Sep-17 18:59N 50°43' W 001°04'0 0.0
2017-Sep-17 18:29N 50°43' W 001°04'0 0.0
2017-Sep-17 17:59N 50°43' W 001°04'0 0.0
2017-Sep-17 17:29N 50°43' W 001°04'0 0.0
2017-Sep-17 16:59N 50°43' W 001°04'0 0.0
2017-Sep-17 16:29N 50°43' W 001°04'0 0.0
2017-Sep-17 15:59N 50°43' W 001°04'0 0.0
2017-Sep-17 15:29N 50°43' W 001°04'0 0.0
2017-Sep-17 14:59N 50°43' W 001°04'0 0.0
2017-Sep-17 14:29N 50°43' W 001°04'0 0.0
2017-Sep-17 13:59N 50°43' W 001°04'0 0.0
2017-Sep-17 13:29N 50°43' W 001°04'0 0.0
2017-Sep-17 12:59N 50°43' W 001°04'0 0.0
2017-Sep-17 12:29N 50°43' W 001°04'0 0.0
2017-Sep-17 11:59N 50°43' W 001°04'0 0.0
2017-Sep-17 11:29N 50°43' W 001°04'0 0.1
2017-Sep-17 10:59N 50°43' W 001°04'0 0.1
2017-Sep-17 10:29N 50°43' W 001°04'0 0.0
2017-Sep-17 09:59N 50°43' W 001°04'0 0.0
2017-Sep-17 09:29N 50°43' W 001°04'0 0.0
2017-Sep-17 08:59N 50°43' W 001°04'0 0.0
2017-Sep-17 08:29N 50°43' W 001°04'0 0.0
2017-Sep-17 07:59N 50°43' W 001°04'0 0.0
2017-Sep-17 07:29N 50°43' W 001°04'0 0.0
2017-Sep-17 06:59N 50°43' W 001°04'0 0.0
2017-Sep-17 06:29N 50°43' W 001°04'0 0.0
2017-Sep-17 05:59N 50°43' W 001°04'0 0.0
2017-Sep-17 05:29N 50°43' W 001°04'0 0.0
2017-Sep-17 04:59N 50°43' W 001°04'0 0.0
2017-Sep-17 04:29N 50°43' W 001°04'0 0.0
2017-Sep-17 03:59N 50°43' W 001°04'0 0.0
2017-Sep-17 03:29N 50°43' W 001°04'0 0.0
2017-Sep-17 02:59N 50°43' W 001°04'0 0.0
2017-Sep-17 02:29N 50°43' W 001°04'0 0.0
2017-Sep-17 01:59N 50°43' W 001°04'0 0.0
2017-Sep-17 01:29N 50°43' W 001°04'0 0.0
2017-Sep-17 00:59N 50°43' W 001°04'0 0.0
2017-Sep-17 00:29N 50°43' W 001°04'0 0.0
2017-Sep-16 23:59N 50°43' W 001°04'0 0.0
2017-Sep-16 23:29N 50°43' W 001°04'0 0.0
2017-Sep-16 22:59N 50°43' W 001°04'0 0.1
2017-Sep-16 22:29N 50°43' W 001°04'0 0.0
2017-Sep-16 21:59N 50°43' W 001°04'0 0.0
2017-Sep-16 21:29N 50°43' W 001°04'0 0.0
2017-Sep-16 20:59N 50°43' W 001°04'0 0.0
2017-Sep-16 20:29N 50°43' W 001°04'0 0.0
2017-Sep-16 19:59N 50°43' W 001°04'0 0.1
2017-Sep-16 19:31N 50°43' W 001°04'3 6.4
2017-Sep-16 19:01N 50°45' W 001°08'611.9
2017-Sep-16 18:31N 50°48' W 001°16'3 5.7
2017-Sep-16 18:00N 50°50' W 001°20'0 0.0
2017-Sep-16 01:58N 50°50' W 001°20'0 0.0
2017-Sep-16 01:30N 50°50' W 001°20'0 0.9
2017-Sep-16 01:00N 50°50' W 001°19'3 5.7
2017-Sep-16 00:30N 50°48' W 001°16'611.3
2017-Sep-16 00:00N 50°45' W 001°08'510.4
2017-Sep-15 23:30N 50°42' W 001°01'2 4.9
2017-Sep-15 23:00N 50°40' W 001°00'2 4.8
2017-Sep-15 22:30N 50°38' W 000°59'3 4.9
2017-Sep-15 21:55N 50°35' W 000°57'71 8.7
2017-Sep-15 13:46N 49°31' W 000°11'311.2
2017-Sep-15 13:30N 49°30' W 000°07'510.8
2017-Sep-15 13:01N 49°28' E 000°01'611.6
2017-Sep-15 12:30N 49°26' E 000°09'612.6
2017-Sep-15 12:00N 49°26' E 000°19'6 0.2
2017-Sep-14 06:20N 49°28' E 000°28'411.2
2017-Sep-14 06:01N 49°27' E 000°23'611.4
2017-Sep-14 05:31N 49°26' E 000°15'611.6
2017-Sep-14 05:01N 49°26' E 000°06'510.8
2017-Sep-14 04:31N 49°28' W 000°02'2 3.8
2017-Sep-14 04:00N 49°28' W 000°05'0 0.1
2017-Sep-14 03:24N 49°28' W 000°05'0 0.0
2017-Sep-14 03:00N 49°28' W 000°05'0 0.0
2017-Sep-14 02:30N 49°28' W 000°05'0 0.0
2017-Sep-14 02:00N 49°28' W 000°05'0 0.1
2017-Sep-14 01:30N 49°28' W 000°05'0 0.0
2017-Sep-14 01:00N 49°28' W 000°05'0 0.0
2017-Sep-14 00:30N 49°28' W 000°05'0 0.1
2017-Sep-13 23:57N 49°28' W 000°05'0 0.0
2017-Sep-13 23:27N 49°28' W 000°05'0 0.0
2017-Sep-13 23:00N 49°28' W 000°05'0 0.0
2017-Sep-13 22:30N 49°28' W 000°05'0 0.0
2017-Sep-13 22:00N 49°28' W 000°05'0 0.0
2017-Sep-13 21:30N 49°28' W 000°05'0 0.0
2017-Sep-13 20:58N 49°28' W 000°05'0 0.0
2017-Sep-13 20:30N 49°28' W 000°05'0 0.0
2017-Sep-13 20:01N 49°28' W 000°05'0 0.0
2017-Sep-13 19:31N 49°28' W 000°05'0 0.0
2017-Sep-13 19:01N 49°28' W 000°05'0 0.0
2017-Sep-13 18:31N 49°28' W 000°05'0 0.0
2017-Sep-13 18:00N 49°28' W 000°05'0 0.0
2017-Sep-13 17:31N 49°28' W 000°05'0 0.0
2017-Sep-13 17:01N 49°28' W 000°05'0 0.0
2017-Sep-13 16:31N 49°28' W 000°05'0 0.0
2017-Sep-13 16:01N 49°28' W 000°05'0 0.0
2017-Sep-13 15:31N 49°28' W 000°05'0 0.0
2017-Sep-13 15:01N 49°28' W 000°05'0 0.0
2017-Sep-13 14:31N 49°28' W 000°05'2 3.9
2017-Sep-13 14:00N 49°29' W 000°07'5 9.3
2017-Sep-13 13:30N 49°31' W 000°14'37 9.0
2017-Sep-13 09:26N 49°53' W 000°60'511.0
2017-Sep-13 09:00N 49°55' W 001°06'510.3
2017-Sep-13 08:30N 49°57' W 001°14'5 9.8
2017-Sep-13 07:59N 49°60' W 001°21'4 9.4
2017-Sep-13 07:30N 50°02' W 001°27'5 9.4
2017-Sep-13 07:00N 50°04' W 001°33'5 9.3
2017-Sep-13 06:30N 50°07' W 001°39'2 4.7
2017-Sep-13 06:00N 50°09' W 001°41'3 6.0
2017-Sep-13 05:31N 50°11' W 001°37'3 5.3
2017-Sep-13 05:00N 50°12' W 001°34'2 4.7
2017-Sep-13 04:30N 50°14' W 001°31'2 3.7
2017-Sep-13 04:00N 50°15' W 001°28'2 3.0
2017-Sep-13 03:30N 50°16' W 001°27'1 2.5
2017-Sep-13 02:53N 50°17' W 001°25'16 2.9
2017-Sep-12 21:13N 50°31' W 001°12'1 5.4
2017-Sep-12 21:00N 50°32' W 001°11'3 5.5
2017-Sep-12 20:30N 50°34' W 001°09'4 7.1
2017-Sep-12 20:00N 50°37' W 001°05'4 8.2
2017-Sep-12 19:30N 50°40' W 001°01'3 6.7
2017-Sep-12 19:00N 50°43' W 001°01'611.2
2017-Sep-12 18:30N 50°46' W 001°09'611.5
2017-Sep-12 18:00N 50°49' W 001°17'2 4.5
2017-Sep-12 17:30N 50°50' W 001°20'0 0.0
2017-Sep-12 17:00N 50°50' W 001°20'0 0.0
2017-Sep-12 16:27N 50°50' W 001°20'0 0.0
2017-Sep-12 16:00N 50°50' W 001°20'0 0.0
2017-Sep-12 15:30N 50°50' W 001°20'0 0.0
2017-Sep-12 15:00N 50°50' W 001°20'0 0.0
2017-Sep-12 14:30N 50°50' W 001°20'0 0.0
2017-Sep-12 14:00N 50°50' W 001°20'0 0.0
2017-Sep-12 13:30N 50°50' W 001°20'0 0.0
2017-Sep-12 13:00N 50°50' W 001°20'0 0.0
2017-Sep-12 12:30N 50°50' W 001°20'0 0.0
2017-Sep-12 11:27N 50°50' W 001°20'0 0.0
2017-Sep-12 11:00N 50°50' W 001°20'0 0.0
2017-Sep-12 10:31N 50°50' W 001°20'0 0.0
2017-Sep-12 10:00N 50°50' W 001°20'0 0.0
2017-Sep-12 09:30N 50°50' W 001°20'0 0.0
2017-Sep-12 09:00N 50°50' W 001°20'0 0.0
2017-Sep-12 08:30N 50°50' W 001°20'0 0.0
2017-Sep-12 08:00N 50°50' W 001°20'0 0.0
2017-Sep-12 07:30N 50°50' W 001°20'0 0.0
2017-Sep-12 07:00N 50°50' W 001°20'0 0.0
2017-Sep-12 06:30N 50°50' W 001°20'0 0.0
2017-Sep-12 06:00N 50°50' W 001°20'0 0.0
2017-Sep-12 05:31N 50°50' W 001°20'0 0.0
2017-Sep-12 05:00N 50°50' W 001°20'0 0.0
2017-Sep-11 21:43N 50°50' W 001°20'0 0.0
2017-Sep-11 21:28N 50°50' W 001°20'0 0.7
2017-Sep-11 21:01N 50°50' W 001°19'3 6.8
2017-Sep-11 20:31N 50°47' W 001°18'510.4
2017-Sep-11 20:00N 50°46' W 001°10'510.1
2017-Sep-11 19:31N 50°44' W 001°03'3 6.5
2017-Sep-11 19:01N 50°40' W 001°02'3 5.3
2017-Sep-11 18:24N 50°38' W 000°59'3 6.3
2017-Sep-11 18:00N 50°38' W 000°55'4 7.2
2017-Sep-11 17:28N 50°37' W 000°49'4 8.0
2017-Sep-11 16:59N 50°37' W 000°43'4 8.8
2017-Sep-11 16:30N 50°36' W 000°37'4 8.6
2017-Sep-11 16:00N 50°36' W 000°30'4 8.0
2017-Sep-11 15:30N 50°35' W 000°24'4 7.1
2017-Sep-11 14:59N 50°35' W 000°18'3 6.5
2017-Sep-11 14:31N 50°34' W 000°13'3 5.8
2017-Sep-11 14:01N 50°34' W 000°09'2 4.7
2017-Sep-11 13:31N 50°33' W 000°05'2 3.9
2017-Sep-11 13:01N 50°34' W 000°02'2 3.4
2017-Sep-11 12:31N 50°34' E 000°01'1 2.8
2017-Sep-11 12:01N 50°33' E 000°03'1 2.8
2017-Sep-11 11:30N 50°34' E 000°05'1 2.8
2017-Sep-11 11:00N 50°34' E 000°07'1 2.8
2017-Sep-11 10:30N 50°34' E 000°09'2 3.3
2017-Sep-11 10:00N 50°35' E 000°12'2 3.8
2017-Sep-11 09:30N 50°35' E 000°15'2 4.1
2017-Sep-11 09:00N 50°36' E 000°18'2 4.6
2017-Sep-11 08:29N 50°37' E 000°21'3 5.6
2017-Sep-11 08:00N 50°37' E 000°25'3 5.8
2017-Sep-11 07:30N 50°38' E 000°30'3 5.9
2017-Sep-11 07:00N 50°39' E 000°34'3 6.3
2017-Sep-11 06:31N 50°41' E 000°38'3 6.2
2017-Sep-11 06:01N 50°42' E 000°42'3 6.3
2017-Sep-11 05:31N 50°44' E 000°46'3 6.0
2017-Sep-11 05:01N 50°46' E 000°50'3 5.9
2017-Sep-11 04:31N 50°48' E 000°54'3 5.8
2017-Sep-11 04:01N 50°49' E 000°58'3 5.3
2017-Sep-11 03:30N 50°51' E 001°01'3 5.1
2017-Sep-11 02:59N 50°53' E 001°05'3 4.9
2017-Sep-11 02:25N 50°54' E 001°08'2 5.1
2017-Sep-11 02:00N 50°56' E 001°11'3 5.1
2017-Sep-11 01:30N 50°57' E 001°14'2 4.8
2017-Sep-11 01:00N 50°59' E 001°17'2 4.5
2017-Sep-11 00:30N 51°00' E 001°19'2 4.4
2017-Sep-11 00:00N 51°02' E 001°22'2 4.7
2017-Sep-10 23:30N 51°03' E 001°25'3 5.5
2017-Sep-10 23:00N 51°05' E 001°28'3 6.3
2017-Sep-10 22:30N 51°07' E 001°32'3 7.0
2017-Sep-10 22:01N 51°09' E 001°36'4 7.4
2017-Sep-10 21:30N 51°12' E 001°41'4 7.0
2017-Sep-10 21:00N 51°14' E 001°45'3 6.1
2017-Sep-10 20:30N 51°17' E 001°47'3 5.5
2017-Sep-10 20:01N 51°19' E 001°48'2 4.2
2017-Sep-10 19:31N 51°21' E 001°50'2 4.0
2017-Sep-10 19:01N 51°23' E 001°51'2 4.0
2017-Sep-10 18:31N 51°25' E 001°52'2 3.7
2017-Sep-10 18:01N 51°27' E 001°54'2 3.1
2017-Sep-10 17:31N 51°28' E 001°55'2 3.2
2017-Sep-10 17:00N 51°29' E 001°57'2 3.3
2017-Sep-10 16:31N 51°30' E 001°59'2 3.4
2017-Sep-10 16:01N 51°32' E 002°01'2 3.8
2017-Sep-10 15:31N 51°33' E 002°03'  
Track history (hours):
 
Tides and Currents Weather Stations Pressure Air Temp Water Temp Dewpoint Dewpoint Depression Visibility Wind Speed Wind Dir Waves Ship Positions

Bayamo

Last reported at 2017-Sep-20 15:05 UTC. Time now 2017-Sep-20 23:51 UTC.
Position N 51°27' E 002°15'.

Length 88 m; draft 4.2 m.

Type: Ship (hazmat cat D). MMSI: 245669000.

Date/timePositionNaut miles runAvg speedWind from/ knotsBaromVisibWave heightAir tempDewpointWater temp
2017-Sep-20 15:05N 51°27' E 002°15'212.1
2017-Sep-20 14:53N 51°25' E 002°13'7 7.4
2017-Sep-20 14:00N 51°22' E 002°22'5 9.6
2017-Sep-20 13:30N 51°23' E 002°29'4 8.3
2017-Sep-20 13:00N 51°20' E 002°35'0 0.8
2017-Sep-20 12:30N 51°20' E 002°35'0 0.0
2017-Sep-20 12:00N 51°20' E 002°35'0 0.0
2017-Sep-20 11:30N 51°20' E 002°35'0 0.0
2017-Sep-20 10:54N 51°20' E 002°35'0 0.6
2017-Sep-20 10:29N 51°20' E 002°35'4 7.5
2017-Sep-20 10:00N 51°21' E 002°29'3 7.0
2017-Sep-20 09:30N 51°20' E 002°24'4 7.2
2017-Sep-20 09:00N 51°18' E 002°20'510.2
2017-Sep-20 08:30N 51°15' E 002°13'5 9.8
2017-Sep-20 08:00N 51°13' E 002°06'5 9.5
2017-Sep-20 07:30N 51°11' E 001°59'5 9.4
2017-Sep-20 07:01N 51°08' E 001°53'5 9.2
2017-Sep-20 06:31N 51°06' E 001°47'5 9.1
2017-Sep-20 06:00N 51°03' E 001°41'5 9.2
2017-Sep-20 05:30N 50°59' E 001°36'100 6.2
2017-Sep-19 13:20N 50°35' W 000°58'412.1
2017-Sep-19 13:01N 50°39' W 000°60'510.3
2017-Sep-19 12:31N 50°43' W 001°04'0 0.0
2017-Sep-19 11:59N 50°43' W 001°04'0 0.0
2017-Sep-19 11:29N 50°43' W 001°04'0 0.0
2017-Sep-19 10:59N 50°43' W 001°04'0 0.0
2017-Sep-19 10:26N 50°43' W 001°04'0 0.0
2017-Sep-19 09:59N 50°43' W 001°04'0 0.0
2017-Sep-19 09:29N 50°43' W 001°04'0 0.0
2017-Sep-19 08:59N 50°43' W 001°04'0 0.0
2017-Sep-19 08:29N 50°43' W 001°04'0 0.2
2017-Sep-19 07:59N 50°43' W 001°04'0 0.0
2017-Sep-19 07:29N 50°43' W 001°04'0 0.0
2017-Sep-19 06:59N 50°43' W 001°04'0 0.0
2017-Sep-19 06:29N 50°43' W 001°04'0 0.0
2017-Sep-19 05:59N 50°43' W 001°04'0 0.0
2017-Sep-19 05:29N 50°43' W 001°04'0 0.0
2017-Sep-19 04:59N 50°43' W 001°04'0 0.0
2017-Sep-19 04:29N 50°43' W 001°04'0 0.0
2017-Sep-19 03:59N 50°43' W 001°04'0 0.0
2017-Sep-19 03:29N 50°43' W 001°04'0 0.0
2017-Sep-19 02:59N 50°43' W 001°04'0 0.0
2017-Sep-19 02:29N 50°43' W 001°04'0 0.0
2017-Sep-19 01:59N 50°43' W 001°04'0 0.0
2017-Sep-19 01:29N 50°43' W 001°04'0 0.0
2017-Sep-19 00:59N 50°43' W 001°04'0 0.1
2017-Sep-19 00:29N 50°43' W 001°04'0 0.1
2017-Sep-18 23:59N 50°43' W 001°04'0 0.0
2017-Sep-18 23:29N 50°43' W 001°04'0 0.0
2017-Sep-18 22:59N 50°43' W 001°04'0 0.0
2017-Sep-18 22:29N 50°43' W 001°04'0 0.0
2017-Sep-18 21:59N 50°43' W 001°04'0 0.0
2017-Sep-18 21:29N 50°43' W 001°04'0 0.0
2017-Sep-18 20:59N 50°43' W 001°04'0 0.1
2017-Sep-18 20:29N 50°43' W 001°04'0 0.1
2017-Sep-18 19:59N 50°43' W 001°04'0 0.0
2017-Sep-18 19:29N 50°43' W 001°04'0 0.0
2017-Sep-18 18:59N 50°43' W 001°04'0 0.1
2017-Sep-18 18:29N 50°43' W 001°04'0 0.0
2017-Sep-18 17:59N 50°43' W 001°04'0 0.0
2017-Sep-18 17:29N 50°43' W 001°04'0 0.0
2017-Sep-18 16:59N 50°43' W 001°04'0 0.0
2017-Sep-18 16:29N 50°43' W 001°04'0 0.0
2017-Sep-18 15:56N 50°43' W 001°04'0 0.0
2017-Sep-18 15:29N 50°43' W 001°04'0 0.0
2017-Sep-18 14:56N 50°43' W 001°04'0 0.0
2017-Sep-18 14:29N 50°43' W 001°04'0 0.0
2017-Sep-18 13:59N 50°43' W 001°04'0 0.0
2017-Sep-18 13:26N 50°43' W 001°04'0 0.1
2017-Sep-18 12:59N 50°43' W 001°04'0 0.0
2017-Sep-18 12:29N 50°43' W 001°04'0 0.2
2017-Sep-18 11:59N 50°43' W 001°04'0 0.0
2017-Sep-18 11:29N 50°43' W 001°04'0 0.0
2017-Sep-18 10:59N 50°43' W 001°04'0 0.0
2017-Sep-18 10:29N 50°43' W 001°04'0 0.0
2017-Sep-18 09:59N 50°43' W 001°04'0 0.0
2017-Sep-18 09:26N 50°43' W 001°04'0 0.0
2017-Sep-18 08:59N 50°43' W 001°04'0 0.0
2017-Sep-18 08:29N 50°43' W 001°04'0 0.1
2017-Sep-18 07:59N 50°43' W 001°04'0 0.0
2017-Sep-18 07:29N 50°43' W 001°04'0 0.0
2017-Sep-18 06:59N 50°43' W 001°04'0 0.0
2017-Sep-18 06:26N 50°43' W 001°04'0 0.0
2017-Sep-18 05:59N 50°43' W 001°04'0 0.0
2017-Sep-18 05:29N 50°43' W 001°04'0 0.0
2017-Sep-18 04:59N 50°43' W 001°04'0 0.0
2017-Sep-18 04:29N 50°43' W 001°04'0 0.0
2017-Sep-18 03:59N 50°43' W 001°04'0 0.0
2017-Sep-18 03:29N 50°43' W 001°04'0 0.0
2017-Sep-18 02:59N 50°43' W 001°04'0 0.0
2017-Sep-18 02:29N 50°43' W 001°04'0 0.0
2017-Sep-18 01:59N 50°43' W 001°04'0 0.0
2017-Sep-18 01:29N 50°43' W 001°04'0 0.0
2017-Sep-18 00:59N 50°43' W 001°04'0 0.0
2017-Sep-18 00:29N 50°43' W 001°04'0 0.0
2017-Sep-17 23:59N 50°43' W 001°04'0 0.1
2017-Sep-17 23:29N 50°43' W 001°04'0 0.1
2017-Sep-17 22:59N 50°43' W 001°04'0 0.0
2017-Sep-17 22:29N 50°43' W 001°04'0 0.0
2017-Sep-17 21:59N 50°43' W 001°04'0 0.0
2017-Sep-17 21:29N 50°43' W 001°04'0 0.0
2017-Sep-17 20:59N 50°43' W 001°04'0 0.0
2017-Sep-17 20:29N 50°43' W 001°04'0 0.0
2017-Sep-17 19:59N 50°43' W 001°04'0 0.0
2017-Sep-17 19:29N 50°43' W 001°04'0 0.0
2017-Sep-17 18:59N 50°43' W 001°04'0 0.0
2017-Sep-17 18:29N 50°43' W 001°04'0 0.0
2017-Sep-17 17:59N 50°43' W 001°04'0 0.0
2017-Sep-17 17:29N 50°43' W 001°04'0 0.0
2017-Sep-17 16:59N 50°43' W 001°04'0 0.0
2017-Sep-17 16:29N 50°43' W 001°04'0 0.0
2017-Sep-17 15:59N 50°43' W 001°04'0 0.0
2017-Sep-17 15:29N 50°43' W 001°04'0 0.0
2017-Sep-17 14:59N 50°43' W 001°04'0 0.0
2017-Sep-17 14:29N 50°43' W 001°04'0 0.0
2017-Sep-17 13:59N 50°43' W 001°04'0 0.0
2017-Sep-17 13:29N 50°43' W 001°04'0 0.0
2017-Sep-17 12:59N 50°43' W 001°04'0 0.0
2017-Sep-17 12:29N 50°43' W 001°04'0 0.0
2017-Sep-17 11:59N 50°43' W 001°04'0 0.0
2017-Sep-17 11:29N 50°43' W 001°04'0 0.1
2017-Sep-17 10:59N 50°43' W 001°04'0 0.1
2017-Sep-17 10:29N 50°43' W 001°04'0 0.0
2017-Sep-17 09:59N 50°43' W 001°04'0 0.0
2017-Sep-17 09:29N 50°43' W 001°04'0 0.0
2017-Sep-17 08:59N 50°43' W 001°04'0 0.0
2017-Sep-17 08:29N 50°43' W 001°04'0 0.0
2017-Sep-17 07:59N 50°43' W 001°04'0 0.0
2017-Sep-17 07:29N 50°43' W 001°04'0 0.0
2017-Sep-17 06:59N 50°43' W 001°04'0 0.0
2017-Sep-17 06:29N 50°43' W 001°04'0 0.0
2017-Sep-17 05:59N 50°43' W 001°04'0 0.0
2017-Sep-17 05:29N 50°43' W 001°04'0 0.0
2017-Sep-17 04:59N 50°43' W 001°04'0 0.0
2017-Sep-17 04:29N 50°43' W 001°04'0 0.0
2017-Sep-17 03:59N 50°43' W 001°04'0 0.0
2017-Sep-17 03:29N 50°43' W 001°04'0 0.0
2017-Sep-17 02:59N 50°43' W 001°04'0 0.0
2017-Sep-17 02:29N 50°43' W 001°04'0 0.0
2017-Sep-17 01:59N 50°43' W 001°04'0 0.0
2017-Sep-17 01:29N 50°43' W 001°04'0 0.0
2017-Sep-17 00:59N 50°43' W 001°04'0 0.0
2017-Sep-17 00:29N 50°43' W 001°04'0 0.0
2017-Sep-16 23:59N 50°43' W 001°04'0 0.0
2017-Sep-16 23:29N 50°43' W 001°04'0 0.0
2017-Sep-16 22:59N 50°43' W 001°04'0 0.1
2017-Sep-16 22:29N 50°43' W 001°04'0 0.0
2017-Sep-16 21:59N 50°43' W 001°04'0 0.0
2017-Sep-16 21:29N 50°43' W 001°04'0 0.0
2017-Sep-16 20:59N 50°43' W 001°04'0 0.0
2017-Sep-16 20:29N 50°43' W 001°04'0 0.0
2017-Sep-16 19:59N 50°43' W 001°04'0 0.1
2017-Sep-16 19:31N 50°43' W 001°04'3 6.4
2017-Sep-16 19:01N 50°45' W 001°08'611.9
2017-Sep-16 18:31N 50°48' W 001°16'3 5.7
2017-Sep-16 18:00N 50°50' W 001°20'0 0.0
2017-Sep-16 01:58N 50°50' W 001°20'0 0.0
2017-Sep-16 01:30N 50°50' W 001°20'0 0.9
2017-Sep-16 01:00N 50°50' W 001°19'3 5.7
2017-Sep-16 00:30N 50°48' W 001°16'611.3
2017-Sep-16 00:00N 50°45' W 001°08'510.4
2017-Sep-15 23:30N 50°42' W 001°01'2 4.9
2017-Sep-15 23:00N 50°40' W 001°00'2 4.8
2017-Sep-15 22:30N 50°38' W 000°59'3 4.9
2017-Sep-15 21:55N 50°35' W 000°57'71 8.7
2017-Sep-15 13:46N 49°31' W 000°11'311.2
2017-Sep-15 13:30N 49°30' W 000°07'510.8
2017-Sep-15 13:01N 49°28' E 000°01'611.6
2017-Sep-15 12:30N 49°26' E 000°09'612.6
2017-Sep-15 12:00N 49°26' E 000°19'6 0.2
2017-Sep-14 06:20N 49°28' E 000°28'411.2
2017-Sep-14 06:01N 49°27' E 000°23'611.4
2017-Sep-14 05:31N 49°26' E 000°15'611.6
2017-Sep-14 05:01N 49°26' E 000°06'510.8
2017-Sep-14 04:31N 49°28' W 000°02'2 3.8
2017-Sep-14 04:00N 49°28' W 000°05'0 0.1
2017-Sep-14 03:24N 49°28' W 000°05'0 0.0
2017-Sep-14 03:00N 49°28' W 000°05'0 0.0
2017-Sep-14 02:30N 49°28' W 000°05'0 0.0
2017-Sep-14 02:00N 49°28' W 000°05'0 0.1
2017-Sep-14 01:30N 49°28' W 000°05'0 0.0
2017-Sep-14 01:00N 49°28' W 000°05'0 0.0
2017-Sep-14 00:30N 49°28' W 000°05'0 0.1
2017-Sep-13 23:57N 49°28' W 000°05'0 0.0
2017-Sep-13 23:27N 49°28' W 000°05'0 0.0
2017-Sep-13 23:00N 49°28' W 000°05'0 0.0
2017-Sep-13 22:30N 49°28' W 000°05'0 0.0
2017-Sep-13 22:00N 49°28' W 000°05'0 0.0
2017-Sep-13 21:30N 49°28' W 000°05'0 0.0
2017-Sep-13 20:58N 49°28' W 000°05'0 0.0
2017-Sep-13 20:30N 49°28' W 000°05'0 0.0
2017-Sep-13 20:01N 49°28' W 000°05'0 0.0
2017-Sep-13 19:31N 49°28' W 000°05'0 0.0
2017-Sep-13 19:01N 49°28' W 000°05'0 0.0
2017-Sep-13 18:31N 49°28' W 000°05'0 0.0
2017-Sep-13 18:00N 49°28' W 000°05'0 0.0
2017-Sep-13 17:31N 49°28' W 000°05'0 0.0
2017-Sep-13 17:01N 49°28' W 000°05'0 0.0
2017-Sep-13 16:31N 49°28' W 000°05'0 0.0
2017-Sep-13 16:01N 49°28' W 000°05'0 0.0
2017-Sep-13 15:31N 49°28' W 000°05'0 0.0
2017-Sep-13 15:01N 49°28' W 000°05'0 0.0
2017-Sep-13 14:31N 49°28' W 000°05'2 3.9
2017-Sep-13 14:00N 49°29' W 000°07'5 9.3
2017-Sep-13 13:30N 49°31' W 000°14'37 9.0
2017-Sep-13 09:26N 49°53' W 000°60'511.0
2017-Sep-13 09:00N 49°55' W 001°06'510.3
2017-Sep-13 08:30N 49°57' W 001°14'5 9.8
2017-Sep-13 07:59N 49°60' W 001°21'4 9.4
2017-Sep-13 07:30N 50°02' W 001°27'5 9.4
2017-Sep-13 07:00N 50°04' W 001°33'5 9.3
2017-Sep-13 06:30N 50°07' W 001°39'2 4.7
2017-Sep-13 06:00N 50°09' W 001°41'3 6.0
2017-Sep-13 05:31N 50°11' W 001°37'3 5.3
2017-Sep-13 05:00N 50°12' W 001°34'2 4.7
2017-Sep-13 04:30N 50°14' W 001°31'2 3.7
2017-Sep-13 04:00N 50°15' W 001°28'2 3.0
2017-Sep-13 03:30N 50°16' W 001°27'1 2.5
2017-Sep-13 02:53N 50°17' W 001°25'16 2.9
2017-Sep-12 21:13N 50°31' W 001°12'1 5.4
2017-Sep-12 21:00N 50°32' W 001°11'3 5.5
2017-Sep-12 20:30N 50°34' W 001°09'4 7.1
2017-Sep-12 20:00N 50°37' W 001°05'4 8.2
2017-Sep-12 19:30N 50°40' W 001°01'3 6.7
2017-Sep-12 19:00N 50°43' W 001°01'611.2
2017-Sep-12 18:30N 50°46' W 001°09'611.5
2017-Sep-12 18:00N 50°49' W 001°17'2 4.5
2017-Sep-12 17:30N 50°50' W 001°20'0 0.0
2017-Sep-12 17:00N 50°50' W 001°20'0 0.0
2017-Sep-12 16:27N 50°50' W 001°20'0 0.0
2017-Sep-12 16:00N 50°50' W 001°20'0 0.0
2017-Sep-12 15:30N 50°50' W 001°20'0 0.0
2017-Sep-12 15:00N 50°50' W 001°20'0 0.0
2017-Sep-12 14:30N 50°50' W 001°20'0 0.0
2017-Sep-12 14:00N 50°50' W 001°20'0 0.0
2017-Sep-12 13:30N 50°50' W 001°20'0 0.0
2017-Sep-12 13:00N 50°50' W 001°20'0 0.0
2017-Sep-12 12:30N 50°50' W 001°20'0 0.0
2017-Sep-12 11:27N 50°50' W 001°20'0 0.0
2017-Sep-12 11:00N 50°50' W 001°20'0 0.0
2017-Sep-12 10:31N 50°50' W 001°20'0 0.0
2017-Sep-12 10:00N 50°50' W 001°20'0 0.0
2017-Sep-12 09:30N 50°50' W 001°20'0 0.0
2017-Sep-12 09:00N 50°50' W 001°20'0 0.0
2017-Sep-12 08:30N 50°50' W 001°20'0 0.0
2017-Sep-12 08:00N 50°50' W 001°20'0 0.0
2017-Sep-12 07:30N 50°50' W 001°20'0 0.0
2017-Sep-12 07:00N 50°50' W 001°20'0 0.0
2017-Sep-12 06:30N 50°50' W 001°20'0 0.0
2017-Sep-12 06:00N 50°50' W 001°20'0 0.0
2017-Sep-12 05:31N 50°50' W 001°20'0 0.0
2017-Sep-12 05:00N 50°50' W 001°20'0 0.0
2017-Sep-11 21:43N 50°50' W 001°20'0 0.0
2017-Sep-11 21:28N 50°50' W 001°20'0 0.7
2017-Sep-11 21:01N 50°50' W 001°19'3 6.8
2017-Sep-11 20:31N 50°47' W 001°18'510.4
2017-Sep-11 20:00N 50°46' W 001°10'510.1
2017-Sep-11 19:31N 50°44' W 001°03'3 6.5
2017-Sep-11 19:01N 50°40' W 001°02'3 5.3
2017-Sep-11 18:24N 50°38' W 000°59'3 6.3
2017-Sep-11 18:00N 50°38' W 000°55'4 7.2
2017-Sep-11 17:28N 50°37' W 000°49'4 8.0
2017-Sep-11 16:59N 50°37' W 000°43'4 8.8
2017-Sep-11 16:30N 50°36' W 000°37'4 8.6
2017-Sep-11 16:00N 50°36' W 000°30'4 8.0
2017-Sep-11 15:30N 50°35' W 000°24'4 7.1
2017-Sep-11 14:59N 50°35' W 000°18'3 6.5
2017-Sep-11 14:31N 50°34' W 000°13'3 5.8
2017-Sep-11 14:01N 50°34' W 000°09'2 4.7
2017-Sep-11 13:31N 50°33' W 000°05'2 3.9
2017-Sep-11 13:01N 50°34' W 000°02'2 3.4
2017-Sep-11 12:31N 50°34' E 000°01'1 2.8
2017-Sep-11 12:01N 50°33' E 000°03'1 2.8
2017-Sep-11 11:30N 50°34' E 000°05'1 2.8
2017-Sep-11 11:00N 50°34' E 000°07'1 2.8
2017-Sep-11 10:30N 50°34' E 000°09'2 3.3
2017-Sep-11 10:00N 50°35' E 000°12'2 3.8
2017-Sep-11 09:30N 50°35' E 000°15'2 4.1
2017-Sep-11 09:00N 50°36' E 000°18'2 4.6
2017-Sep-11 08:29N 50°37' E 000°21'3 5.6
2017-Sep-11 08:00N 50°37' E 000°25'3 5.8
2017-Sep-11 07:30N 50°38' E 000°30'3 5.9
2017-Sep-11 07:00N 50°39' E 000°34'3 6.3
2017-Sep-11 06:31N 50°41' E 000°38'3 6.2
2017-Sep-11 06:01N 50°42' E 000°42'3 6.3
2017-Sep-11 05:31N 50°44' E 000°46'3 6.0
2017-Sep-11 05:01N 50°46' E 000°50'3 5.9
2017-Sep-11 04:31N 50°48' E 000°54'3 5.8
2017-Sep-11 04:01N 50°49' E 000°58'3 5.3
2017-Sep-11 03:30N 50°51' E 001°01'3 5.1
2017-Sep-11 02:59N 50°53' E 001°05'3 4.9
2017-Sep-11 02:25N 50°54' E 001°08'2 5.1
2017-Sep-11 02:00N 50°56' E 001°11'3 5.1
2017-Sep-11 01:30N 50°57' E 001°14'2 4.8
2017-Sep-11 01:00N 50°59' E 001°17'2 4.5
2017-Sep-11 00:30N 51°00' E 001°19'2 4.4
2017-Sep-11 00:00N 51°02' E 001°22'2 4.7
2017-Sep-10 23:30N 51°03' E 001°25'3 5.5
2017-Sep-10 23:00N 51°05' E 001°28'3 6.3
2017-Sep-10 22:30N 51°07' E 001°32'3 7.0
2017-Sep-10 22:01N 51°09' E 001°36'4 7.4
2017-Sep-10 21:30N 51°12' E 001°41'4 7.0
2017-Sep-10 21:00N 51°14' E 001°45'3 6.1
2017-Sep-10 20:30N 51°17' E 001°47'3 5.5
2017-Sep-10 20:01N 51°19' E 001°48'2 4.2
2017-Sep-10 19:31N 51°21' E 001°50'2 4.0
2017-Sep-10 19:01N 51°23' E 001°51'2 4.0
2017-Sep-10 18:31N 51°25' E 001°52'2 3.7
2017-Sep-10 18:01N 51°27' E 001°54'2 3.1
2017-Sep-10 17:31N 51°28' E 001°55'2 3.2
2017-Sep-10 17:00N 51°29' E 001°57'2 3.3
2017-Sep-10 16:31N 51°30' E 001°59'2 3.4
2017-Sep-10 16:01N 51°32' E 002°01'2 3.8
2017-Sep-10 15:31N 51°33' E 002°03'  

Dump ship's entire track history